sensor_id;sensor_type;location;lat;lon;timestamp;P1;durP1;ratioP1;P2;durP2;ratioP2
64684;SDS011;51109;47.414;18.954;2023-12-29T00:01:51;77.63;;;38.97;;
64684;SDS011;51109;47.414;18.954;2023-12-29T00:04:17;77.75;;;38.78;;
64684;SDS011;51109;47.414;18.954;2023-12-29T00:06:43;80.03;;;39.03;;
64684;SDS011;51109;47.414;18.954;2023-12-29T00:09:09;78.15;;;40.25;;
64684;SDS011;51109;47.414;18.954;2023-12-29T00:11:34;77.40;;;40.03;;
64684;SDS011;51109;47.414;18.954;2023-12-29T00:14:00;73.97;;;39.30;;
64684;SDS011;51109;47.414;18.954;2023-12-29T00:16:29;73.10;;;39.55;;
64684;SDS011;51109;47.414;18.954;2023-12-29T00:18:55;78.25;;;40.15;;
64684;SDS011;51109;47.414;18.954;2023-12-29T00:21:21;73.18;;;39.28;;
64684;SDS011;51109;47.414;18.954;2023-12-29T00:23:46;72.38;;;38.90;;
64684;SDS011;51109;47.414;18.954;2023-12-29T00:26:16;82.80;;;39.53;;
64684;SDS011;51109;47.414;18.954;2023-12-29T00:28:42;75.35;;;40.15;;
64684;SDS011;51109;47.414;18.954;2023-12-29T00:31:09;70.03;;;37.33;;
64684;SDS011;51109;47.414;18.954;2023-12-29T00:33:41;68.13;;;36.75;;
64684;SDS011;51109;47.414;18.954;2023-12-29T00:36:14;71.68;;;37.80;;
64684;SDS011;51109;47.414;18.954;2023-12-29T00:38:43;64.15;;;36.65;;
64684;SDS011;51109;47.414;18.954;2023-12-29T00:41:09;63.30;;;34.90;;
64684;SDS011;51109;47.414;18.954;2023-12-29T00:43:35;66.85;;;35.35;;
64684;SDS011;51109;47.414;18.954;2023-12-29T00:46:02;68.30;;;35.50;;
64684;SDS011;51109;47.414;18.954;2023-12-29T00:48:28;66.20;;;38.47;;
64684;SDS011;51109;47.414;18.954;2023-12-29T00:50:54;64.80;;;35.92;;
64684;SDS011;51109;47.414;18.954;2023-12-29T00:53:20;67.95;;;37.97;;
64684;SDS011;51109;47.414;18.954;2023-12-29T00:55:46;67.32;;;38.40;;
64684;SDS011;51109;47.414;18.954;2023-12-29T00:58:12;74.30;;;38.80;;
64684;SDS011;51109;47.414;18.954;2023-12-29T01:00:38;66.15;;;36.50;;
64684;SDS011;51109;47.414;18.954;2023-12-29T01:03:04;65.07;;;36.30;;
64684;SDS011;51109;47.414;18.954;2023-12-29T01:05:30;68.88;;;36.17;;
64684;SDS011;51109;47.414;18.954;2023-12-29T01:07:55;73.45;;;36.60;;
64684;SDS011;51109;47.414;18.954;2023-12-29T01:10:21;71.10;;;35.40;;
64684;SDS011;51109;47.414;18.954;2023-12-29T01:12:47;59.72;;;34.03;;
64684;SDS011;51109;47.414;18.954;2023-12-29T01:15:13;65.85;;;36.63;;
64684;SDS011;51109;47.414;18.954;2023-12-29T01:17:38;64.88;;;34.38;;
64684;SDS011;51109;47.414;18.954;2023-12-29T01:20:04;63.72;;;35.85;;
64684;SDS011;51109;47.414;18.954;2023-12-29T01:22:31;62.15;;;34.65;;
64684;SDS011;51109;47.414;18.954;2023-12-29T01:24:59;63.28;;;33.42;;
64684;SDS011;51109;47.414;18.954;2023-12-29T01:27:28;67.00;;;36.42;;
64684;SDS011;51109;47.414;18.954;2023-12-29T01:29:54;68.88;;;36.58;;
64684;SDS011;51109;47.414;18.954;2023-12-29T01:32:21;67.18;;;35.38;;
64684;SDS011;51109;47.414;18.954;2023-12-29T01:34:47;69.72;;;36.80;;
64684;SDS011;51109;47.414;18.954;2023-12-29T01:37:13;60.03;;;34.03;;
64684;SDS011;51109;47.414;18.954;2023-12-29T01:39:38;66.18;;;36.15;;
64684;SDS011;51109;47.414;18.954;2023-12-29T01:42:07;65.93;;;35.35;;
64684;SDS011;51109;47.414;18.954;2023-12-29T01:44:33;73.95;;;34.25;;
64684;SDS011;51109;47.414;18.954;2023-12-29T01:46:59;67.38;;;37.25;;
64684;SDS011;51109;47.414;18.954;2023-12-29T01:49:26;66.45;;;34.67;;
64684;SDS011;51109;47.414;18.954;2023-12-29T01:51:54;61.67;;;33.47;;
64684;SDS011;51109;47.414;18.954;2023-12-29T01:54:23;61.90;;;32.97;;
64684;SDS011;51109;47.414;18.954;2023-12-29T01:56:50;58.97;;;32.80;;
64684;SDS011;51109;47.414;18.954;2023-12-29T01:59:20;62.83;;;34.03;;
64684;SDS011;51109;47.414;18.954;2023-12-29T02:04:14;63.03;;;34.50;;
64684;SDS011;51109;47.414;18.954;2023-12-29T02:06:42;69.88;;;36.35;;
64684;SDS011;51109;47.414;18.954;2023-12-29T02:09:07;70.72;;;36.88;;
64684;SDS011;51109;47.414;18.954;2023-12-29T02:11:34;70.25;;;38.25;;
64684;SDS011;51109;47.414;18.954;2023-12-29T02:14:00;70.20;;;38.88;;
64684;SDS011;51109;47.414;18.954;2023-12-29T02:16:35;66.30;;;37.25;;
64684;SDS011;51109;47.414;18.954;2023-12-29T02:22:03;64.93;;;35.50;;
64684;SDS011;51109;47.414;18.954;2023-12-29T02:24:30;77.93;;;40.13;;
64684;SDS011;51109;47.414;18.954;2023-12-29T02:26:57;76.82;;;39.75;;
64684;SDS011;51109;47.414;18.954;2023-12-29T02:29:44;76.07;;;40.30;;
64684;SDS011;51109;47.414;18.954;2023-12-29T02:32:16;83.93;;;43.67;;
64684;SDS011;51109;47.414;18.954;2023-12-29T02:34:44;97.20;;;46.33;;
64684;SDS011;51109;47.414;18.954;2023-12-29T02:37:14;95.55;;;47.08;;
64684;SDS011;51109;47.414;18.954;2023-12-29T02:39:40;91.90;;;46.05;;
64684;SDS011;51109;47.414;18.954;2023-12-29T02:42:06;88.82;;;43.75;;
64684;SDS011;51109;47.414;18.954;2023-12-29T02:44:31;85.03;;;44.05;;
64684;SDS011;51109;47.414;18.954;2023-12-29T02:46:57;85.10;;;44.33;;
64684;SDS011;51109;47.414;18.954;2023-12-29T02:49:26;90.25;;;42.25;;
64684;SDS011;51109;47.414;18.954;2023-12-29T02:51:52;80.40;;;41.05;;
64684;SDS011;51109;47.414;18.954;2023-12-29T02:54:17;86.95;;;43.58;;
64684;SDS011;51109;47.414;18.954;2023-12-29T02:56:43;83.90;;;43.85;;
64684;SDS011;51109;47.414;18.954;2023-12-29T02:59:09;80.10;;;41.95;;
64684;SDS011;51109;47.414;18.954;2023-12-29T03:01:35;82.63;;;42.25;;
64684;SDS011;51109;47.414;18.954;2023-12-29T03:04:01;82.10;;;41.40;;
64684;SDS011;51109;47.414;18.954;2023-12-29T03:06:26;80.55;;;41.05;;
64684;SDS011;51109;47.414;18.954;2023-12-29T03:08:52;83.85;;;40.45;;
64684;SDS011;51109;47.414;18.954;2023-12-29T03:11:18;64.80;;;38.22;;
64684;SDS011;51109;47.414;18.954;2023-12-29T03:13:44;77.35;;;41.38;;
64684;SDS011;51109;47.414;18.954;2023-12-29T03:16:10;72.07;;;39.33;;
64684;SDS011;51109;47.414;18.954;2023-12-29T03:18:36;87.93;;;42.38;;
64684;SDS011;51109;47.414;18.954;2023-12-29T03:21:05;84.50;;;42.78;;
64684;SDS011;51109;47.414;18.954;2023-12-29T03:23:31;88.97;;;44.72;;
64684;SDS011;51109;47.414;18.954;2023-12-29T03:25:57;90.40;;;46.40;;
64684;SDS011;51109;47.414;18.954;2023-12-29T03:28:22;85.68;;;43.80;;
64684;SDS011;51109;47.414;18.954;2023-12-29T03:30:48;80.40;;;41.97;;
64684;SDS011;51109;47.414;18.954;2023-12-29T03:33:14;94.88;;;44.72;;
64684;SDS011;51109;47.414;18.954;2023-12-29T03:35:40;85.70;;;45.00;;
64684;SDS011;51109;47.414;18.954;2023-12-29T03:38:06;89.07;;;46.55;;
64684;SDS011;51109;47.414;18.954;2023-12-29T03:40:32;88.53;;;45.97;;
64684;SDS011;51109;47.414;18.954;2023-12-29T03:42:58;83.22;;;43.45;;
64684;SDS011;51109;47.414;18.954;2023-12-29T03:45:23;77.30;;;41.95;;
64684;SDS011;51109;47.414;18.954;2023-12-29T03:47:49;79.82;;;43.17;;
64684;SDS011;51109;47.414;18.954;2023-12-29T03:50:15;75.68;;;42.60;;
64684;SDS011;51109;47.414;18.954;2023-12-29T03:52:41;72.38;;;39.75;;
64684;SDS011;51109;47.414;18.954;2023-12-29T03:55:06;69.22;;;37.97;;
64684;SDS011;51109;47.414;18.954;2023-12-29T03:57:32;75.10;;;40.17;;
64684;SDS011;51109;47.414;18.954;2023-12-29T03:59:58;78.03;;;39.10;;
64684;SDS011;51109;47.414;18.954;2023-12-29T04:02:24;77.88;;;39.75;;
64684;SDS011;51109;47.414;18.954;2023-12-29T04:04:50;73.68;;;39.88;;
64684;SDS011;51109;47.414;18.954;2023-12-29T04:07:15;72.22;;;39.92;;
64684;SDS011;51109;47.414;18.954;2023-12-29T04:09:41;66.68;;;37.88;;
64684;SDS011;51109;47.414;18.954;2023-12-29T04:12:08;66.30;;;37.10;;
64684;SDS011;51109;47.414;18.954;2023-12-29T04:14:33;72.43;;;38.60;;
64684;SDS011;51109;47.414;18.954;2023-12-29T04:16:59;71.18;;;38.92;;
64684;SDS011;51109;47.414;18.954;2023-12-29T04:19:28;67.75;;;38.70;;
64684;SDS011;51109;47.414;18.954;2023-12-29T04:21:54;62.95;;;35.28;;
64684;SDS011;51109;47.414;18.954;2023-12-29T04:24:19;62.13;;;34.53;;
64684;SDS011;51109;47.414;18.954;2023-12-29T04:26:45;67.00;;;36.25;;
64684;SDS011;51109;47.414;18.954;2023-12-29T04:29:11;71.35;;;35.95;;
64684;SDS011;51109;47.414;18.954;2023-12-29T04:31:37;74.97;;;39.03;;
64684;SDS011;51109;47.414;18.954;2023-12-29T04:34:02;73.82;;;39.40;;
64684;SDS011;51109;47.414;18.954;2023-12-29T04:36:28;68.75;;;37.67;;
64684;SDS011;51109;47.414;18.954;2023-12-29T04:38:54;75.68;;;39.72;;
64684;SDS011;51109;47.414;18.954;2023-12-29T04:41:20;69.95;;;37.75;;
64684;SDS011;51109;47.414;18.954;2023-12-29T04:43:45;75.63;;;39.67;;
64684;SDS011;51109;47.414;18.954;2023-12-29T04:46:11;67.68;;;37.78;;
64684;SDS011;51109;47.414;18.954;2023-12-29T04:48:37;75.20;;;39.33;;
64684;SDS011;51109;47.414;18.954;2023-12-29T04:51:03;76.75;;;40.78;;
64684;SDS011;51109;47.414;18.954;2023-12-29T04:53:28;89.43;;;43.72;;
64684;SDS011;51109;47.414;18.954;2023-12-29T04:55:54;81.63;;;42.38;;
64684;SDS011;51109;47.414;18.954;2023-12-29T04:58:20;121.00;;;47.63;;
64684;SDS011;51109;47.414;18.954;2023-12-29T05:00:46;108.35;;;47.40;;
64684;SDS011;51109;47.414;18.954;2023-12-29T05:03:12;159.00;;;42.65;;
64684;SDS011;51109;47.414;18.954;2023-12-29T05:05:37;120.85;;;40.55;;
64684;SDS011;51109;47.414;18.954;2023-12-29T05:08:03;86.20;;;37.80;;
64684;SDS011;51109;47.414;18.954;2023-12-29T05:10:29;75.05;;;37.70;;
64684;SDS011;51109;47.414;18.954;2023-12-29T05:12:55;73.43;;;37.88;;
64684;SDS011;51109;47.414;18.954;2023-12-29T05:15:21;70.18;;;37.38;;
64684;SDS011;51109;47.414;18.954;2023-12-29T05:17:46;68.07;;;37.65;;
64684;SDS011;51109;47.414;18.954;2023-12-29T05:20:12;67.68;;;36.78;;
64684;SDS011;51109;47.414;18.954;2023-12-29T05:22:38;72.00;;;37.75;;
64684;SDS011;51109;47.414;18.954;2023-12-29T05:25:04;75.45;;;38.90;;
64684;SDS011;51109;47.414;18.954;2023-12-29T05:27:30;67.45;;;38.55;;
64684;SDS011;51109;47.414;18.954;2023-12-29T05:29:56;70.07;;;38.25;;
64684;SDS011;51109;47.414;18.954;2023-12-29T05:32:22;65.75;;;35.75;;
64684;SDS011;51109;47.414;18.954;2023-12-29T05:34:48;61.78;;;35.42;;
64684;SDS011;51109;47.414;18.954;2023-12-29T05:37:14;68.47;;;36.88;;
64684;SDS011;51109;47.414;18.954;2023-12-29T05:39:43;63.67;;;34.83;;
64684;SDS011;51109;47.414;18.954;2023-12-29T05:42:09;75.90;;;41.05;;
64684;SDS011;51109;47.414;18.954;2023-12-29T05:44:37;75.07;;;38.75;;
64684;SDS011;51109;47.414;18.954;2023-12-29T05:47:06;75.93;;;40.38;;
64684;SDS011;51109;47.414;18.954;2023-12-29T05:49:32;68.75;;;37.85;;
64684;SDS011;51109;47.414;18.954;2023-12-29T05:52:03;74.97;;;39.20;;
64684;SDS011;51109;47.414;18.954;2023-12-29T05:54:29;75.07;;;40.47;;
64684;SDS011;51109;47.414;18.954;2023-12-29T05:56:55;80.45;;;42.53;;
64684;SDS011;51109;47.414;18.954;2023-12-29T05:59:21;70.72;;;38.05;;
64684;SDS011;51109;47.414;18.954;2023-12-29T06:01:47;77.53;;;39.30;;
64684;SDS011;51109;47.414;18.954;2023-12-29T06:04:12;75.80;;;40.15;;
64684;SDS011;51109;47.414;18.954;2023-12-29T06:06:38;69.25;;;38.90;;
64684;SDS011;51109;47.414;18.954;2023-12-29T06:09:06;79.47;;;39.15;;
64684;SDS011;51109;47.414;18.954;2023-12-29T06:11:32;71.75;;;38.28;;
64684;SDS011;51109;47.414;18.954;2023-12-29T06:13:58;70.25;;;36.88;;
64684;SDS011;51109;47.414;18.954;2023-12-29T06:16:24;74.90;;;36.47;;
64684;SDS011;51109;47.414;18.954;2023-12-29T06:18:52;105.85;;;43.58;;
64684;SDS011;51109;47.414;18.954;2023-12-29T06:21:18;188.00;;;63.20;;
64684;SDS011;51109;47.414;18.954;2023-12-29T06:23:44;264.60;;;79.43;;
64684;SDS011;51109;47.414;18.954;2023-12-29T06:26:17;282.98;;;87.28;;
64684;SDS011;51109;47.414;18.954;2023-12-29T06:28:44;170.63;;;67.53;;
64684;SDS011;51109;47.414;18.954;2023-12-29T06:31:10;84.65;;;42.97;;
64684;SDS011;51109;47.414;18.954;2023-12-29T06:33:36;111.32;;;46.35;;
64684;SDS011;51109;47.414;18.954;2023-12-29T06:36:06;106.80;;;43.33;;
64684;SDS011;51109;47.414;18.954;2023-12-29T06:38:32;79.90;;;40.63;;
64684;SDS011;51109;47.414;18.954;2023-12-29T06:41:01;109.80;;;46.40;;
64684;SDS011;51109;47.414;18.954;2023-12-29T06:43:27;127.00;;;55.33;;
64684;SDS011;51109;47.414;18.954;2023-12-29T06:45:53;128.00;;;56.35;;
64684;SDS011;51109;47.414;18.954;2023-12-29T06:48:19;158.90;;;55.45;;
64684;SDS011;51109;47.414;18.954;2023-12-29T06:50:45;175.48;;;59.63;;
64684;SDS011;51109;47.414;18.954;2023-12-29T06:53:11;207.73;;;59.35;;
64684;SDS011;51109;47.414;18.954;2023-12-29T06:55:38;174.50;;;59.50;;
64684;SDS011;51109;47.414;18.954;2023-12-29T06:58:04;173.63;;;59.17;;
64684;SDS011;51109;47.414;18.954;2023-12-29T07:00:30;200.35;;;64.75;;
64684;SDS011;51109;47.414;18.954;2023-12-29T07:02:56;183.82;;;67.03;;
64684;SDS011;51109;47.414;18.954;2023-12-29T07:05:22;176.68;;;65.20;;
64684;SDS011;51109;47.414;18.954;2023-12-29T07:07:48;171.30;;;65.35;;
64684;SDS011;51109;47.414;18.954;2023-12-29T07:10:13;171.70;;;65.38;;
64684;SDS011;51109;47.414;18.954;2023-12-29T07:12:42;185.88;;;62.75;;
64684;SDS011;51109;47.414;18.954;2023-12-29T07:15:08;157.02;;;63.00;;
64684;SDS011;51109;47.414;18.954;2023-12-29T07:17:34;195.80;;;64.00;;
64684;SDS011;51109;47.414;18.954;2023-12-29T07:20:00;139.63;;;65.18;;
64684;SDS011;51109;47.414;18.954;2023-12-29T07:22:26;226.88;;;67.80;;
64684;SDS011;51109;47.414;18.954;2023-12-29T07:24:52;155.98;;;65.75;;
64684;SDS011;51109;47.414;18.954;2023-12-29T07:27:18;164.20;;;61.58;;
64684;SDS011;51109;47.414;18.954;2023-12-29T07:29:44;207.50;;;72.30;;
64684;SDS011;51109;47.414;18.954;2023-12-29T07:32:10;192.85;;;72.97;;
64684;SDS011;51109;47.414;18.954;2023-12-29T07:34:35;203.93;;;74.53;;
64684;SDS011;51109;47.414;18.954;2023-12-29T07:37:01;159.38;;;71.38;;
64684;SDS011;51109;47.414;18.954;2023-12-29T07:39:27;196.82;;;76.22;;
64684;SDS011;51109;47.414;18.954;2023-12-29T07:41:53;317.80;;;92.00;;
64684;SDS011;51109;47.414;18.954;2023-12-29T07:44:19;177.30;;;69.22;;
64684;SDS011;51109;47.414;18.954;2023-12-29T07:46:45;142.32;;;65.15;;
64684;SDS011;51109;47.414;18.954;2023-12-29T07:49:11;151.45;;;68.38;;
64684;SDS011;51109;47.414;18.954;2023-12-29T07:51:40;178.75;;;71.28;;
64684;SDS011;51109;47.414;18.954;2023-12-29T07:54:07;151.90;;;65.90;;
64684;SDS011;51109;47.414;18.954;2023-12-29T07:56:34;149.90;;;62.25;;
64684;SDS011;51109;47.414;18.954;2023-12-29T07:59:01;171.93;;;77.03;;
64684;SDS011;51109;47.414;18.954;2023-12-29T08:01:27;178.60;;;78.75;;
64684;SDS011;51109;47.414;18.954;2023-12-29T08:03:52;165.57;;;65.97;;
64684;SDS011;51109;47.414;18.954;2023-12-29T08:06:18;125.88;;;56.20;;
64684;SDS011;51109;47.414;18.954;2023-12-29T08:08:44;130.18;;;55.60;;
64684;SDS011;51109;47.414;18.954;2023-12-29T08:11:13;153.00;;;53.13;;
64684;SDS011;51109;47.414;18.954;2023-12-29T08:13:43;138.10;;;56.10;;
64684;SDS011;51109;47.414;18.954;2023-12-29T08:16:10;139.35;;;62.03;;
64684;SDS011;51109;47.414;18.954;2023-12-29T08:18:36;131.70;;;65.07;;
64684;SDS011;51109;47.414;18.954;2023-12-29T08:21:02;136.15;;;67.72;;
64684;SDS011;51109;47.414;18.954;2023-12-29T08:23:28;142.73;;;70.07;;
64684;SDS011;51109;47.414;18.954;2023-12-29T08:25:55;230.43;;;98.05;;
64684;SDS011;51109;47.414;18.954;2023-12-29T08:28:22;186.63;;;86.03;;
64684;SDS011;51109;47.414;18.954;2023-12-29T08:30:48;125.72;;;64.80;;
64684;SDS011;51109;47.414;18.954;2023-12-29T08:33:14;113.80;;;58.63;;
64684;SDS011;51109;47.414;18.954;2023-12-29T08:35:40;116.57;;;60.50;;
64684;SDS011;51109;47.414;18.954;2023-12-29T08:38:06;104.28;;;55.05;;
64684;SDS011;51109;47.414;18.954;2023-12-29T08:40:32;100.68;;;55.35;;
64684;SDS011;51109;47.414;18.954;2023-12-29T08:42:58;91.13;;;50.63;;
64684;SDS011;51109;47.414;18.954;2023-12-29T08:45:26;86.43;;;48.13;;
64684;SDS011;51109;47.414;18.954;2023-12-29T08:47:52;81.90;;;45.55;;
64684;SDS011;51109;47.414;18.954;2023-12-29T08:50:19;79.72;;;45.20;;
64684;SDS011;51109;47.414;18.954;2023-12-29T08:52:47;91.40;;;48.05;;
64684;SDS011;51109;47.414;18.954;2023-12-29T08:55:12;81.38;;;47.92;;
64684;SDS011;51109;47.414;18.954;2023-12-29T08:57:38;84.28;;;49.25;;
64684;SDS011;51109;47.414;18.954;2023-12-29T09:00:04;97.90;;;56.03;;
64684;SDS011;51109;47.414;18.954;2023-12-29T09:02:30;88.47;;;52.97;;
64684;SDS011;51109;47.414;18.954;2023-12-29T09:04:56;88.50;;;52.05;;
64684;SDS011;51109;47.414;18.954;2023-12-29T09:07:22;82.03;;;48.75;;
64684;SDS011;51109;47.414;18.954;2023-12-29T09:09:48;77.00;;;46.42;;
64684;SDS011;51109;47.414;18.954;2023-12-29T09:12:13;75.68;;;47.58;;
64684;SDS011;51109;47.414;18.954;2023-12-29T09:14:39;78.28;;;47.65;;
64684;SDS011;51109;47.414;18.954;2023-12-29T09:17:05;79.85;;;49.42;;
64684;SDS011;51109;47.414;18.954;2023-12-29T09:19:31;87.05;;;52.60;;
64684;SDS011;51109;47.414;18.954;2023-12-29T09:21:56;81.13;;;51.58;;
64684;SDS011;51109;47.414;18.954;2023-12-29T09:24:22;91.15;;;53.72;;
64684;SDS011;51109;47.414;18.954;2023-12-29T09:26:48;91.38;;;54.95;;
64684;SDS011;51109;47.414;18.954;2023-12-29T09:29:16;89.75;;;52.70;;
64684;SDS011;51109;47.414;18.954;2023-12-29T09:31:42;97.50;;;54.40;;
64684;SDS011;51109;47.414;18.954;2023-12-29T09:34:08;95.13;;;59.08;;
64684;SDS011;51109;47.414;18.954;2023-12-29T09:36:34;102.20;;;60.15;;
64684;SDS011;51109;47.414;18.954;2023-12-29T09:38:59;111.65;;;68.80;;
64684;SDS011;51109;47.414;18.954;2023-12-29T09:41:25;115.18;;;69.45;;
64684;SDS011;51109;47.414;18.954;2023-12-29T09:43:53;112.57;;;66.63;;
64684;SDS011;51109;47.414;18.954;2023-12-29T09:46:19;120.88;;;70.85;;
64684;SDS011;51109;47.414;18.954;2023-12-29T09:48:47;117.35;;;68.30;;
64684;SDS011;51109;47.414;18.954;2023-12-29T09:51:16;114.60;;;67.15;;
64684;SDS011;51109;47.414;18.954;2023-12-29T09:53:47;122.30;;;69.88;;
64684;SDS011;51109;47.414;18.954;2023-12-29T09:56:14;140.90;;;75.70;;
64684;SDS011;51109;47.414;18.954;2023-12-29T09:58:41;141.55;;;75.57;;
64684;SDS011;51109;47.414;18.954;2023-12-29T10:01:08;127.68;;;67.72;;
64684;SDS011;51109;47.414;18.954;2023-12-29T10:03:34;103.45;;;61.25;;
64684;SDS011;51109;47.414;18.954;2023-12-29T10:06:00;99.45;;;58.25;;
64684;SDS011;51109;47.414;18.954;2023-12-29T10:08:32;87.03;;;51.65;;
64684;SDS011;51109;47.414;18.954;2023-12-29T10:11:00;74.40;;;46.53;;
64684;SDS011;51109;47.414;18.954;2023-12-29T10:13:27;70.85;;;43.47;;
64684;SDS011;51109;47.414;18.954;2023-12-29T10:15:56;63.78;;;41.60;;
64684;SDS011;51109;47.414;18.954;2023-12-29T10:18:43;54.50;;;35.72;;
64684;SDS011;51109;47.414;18.954;2023-12-29T10:23:41;65.13;;;40.50;;
64684;SDS011;51109;47.414;18.954;2023-12-29T10:26:11;63.50;;;39.55;;
64684;SDS011;51109;47.414;18.954;2023-12-29T10:28:37;55.75;;;36.00;;
64684;SDS011;51109;47.414;18.954;2023-12-29T10:31:06;70.20;;;42.42;;
64684;SDS011;51109;47.414;18.954;2023-12-29T10:33:35;67.00;;;41.47;;
64684;SDS011;51109;47.414;18.954;2023-12-29T10:36:01;63.20;;;39.38;;
64684;SDS011;51109;47.414;18.954;2023-12-29T10:38:29;65.55;;;40.47;;
64684;SDS011;51109;47.414;18.954;2023-12-29T10:43:40;59.50;;;36.35;;
64684;SDS011;51109;47.414;18.954;2023-12-29T10:46:08;59.58;;;36.30;;
64684;SDS011;51109;47.414;18.954;2023-12-29T10:48:35;53.40;;;35.33;;
64684;SDS011;51109;47.414;18.954;2023-12-29T10:51:02;46.30;;;30.50;;
64684;SDS011;51109;47.414;18.954;2023-12-29T10:53:29;45.67;;;29.00;;
64684;SDS011;51109;47.414;18.954;2023-12-29T10:55:56;36.30;;;25.08;;
64684;SDS011;51109;47.414;18.954;2023-12-29T10:58:25;31.38;;;20.33;;
64684;SDS011;51109;47.414;18.954;2023-12-29T11:00:58;28.08;;;17.70;;
64684;SDS011;51109;47.414;18.954;2023-12-29T11:03:27;23.92;;;16.25;;
64684;SDS011;51109;47.414;18.954;2023-12-29T11:05:59;22.92;;;15.15;;
64684;SDS011;51109;47.414;18.954;2023-12-29T11:08:25;22.90;;;16.05;;
64684;SDS011;51109;47.414;18.954;2023-12-29T11:10:51;25.02;;;15.65;;
64684;SDS011;51109;47.414;18.954;2023-12-29T11:13:20;28.25;;;18.23;;
64684;SDS011;51109;47.414;18.954;2023-12-29T11:15:46;27.50;;;16.90;;
64684;SDS011;51109;47.414;18.954;2023-12-29T11:18:13;27.00;;;17.13;;
64684;SDS011;51109;47.414;18.954;2023-12-29T11:20:40;27.27;;;18.67;;
64684;SDS011;51109;47.414;18.954;2023-12-29T11:23:07;29.85;;;18.42;;
64684;SDS011;51109;47.414;18.954;2023-12-29T11:25:35;27.48;;;19.02;;
64684;SDS011;51109;47.414;18.954;2023-12-29T11:28:01;24.60;;;18.45;;
64684;SDS011;51109;47.414;18.954;2023-12-29T11:30:28;26.67;;;19.27;;
64684;SDS011;51109;47.414;18.954;2023-12-29T11:35:29;32.15;;;19.70;;
64684;SDS011;51109;47.414;18.954;2023-12-29T11:43:56;33.90;;;23.50;;
64684;SDS011;51109;47.414;18.954;2023-12-29T11:46:32;37.58;;;25.55;;
64684;SDS011;51109;47.414;18.954;2023-12-29T11:48:59;37.80;;;25.42;;
64684;SDS011;51109;47.414;18.954;2023-12-29T11:54:02;39.65;;;27.70;;
64684;SDS011;51109;47.414;18.954;2023-12-29T11:56:33;42.30;;;29.00;;
64684;SDS011;51109;47.414;18.954;2023-12-29T11:59:34;41.25;;;28.20;;
64684;SDS011;51109;47.414;18.954;2023-12-29T12:01:53;44.35;;;29.98;;
64684;SDS011;51109;47.414;18.954;2023-12-29T12:09:47;43.45;;;29.75;;
64684;SDS011;51109;47.414;18.954;2023-12-29T12:17:57;47.03;;;30.90;;
64684;SDS011;51109;47.414;18.954;2023-12-29T12:20:24;46.13;;;30.40;;
64684;SDS011;51109;47.414;18.954;2023-12-29T12:23:02;44.63;;;30.08;;
64684;SDS011;51109;47.414;18.954;2023-12-29T12:25:31;43.97;;;29.35;;
64684;SDS011;51109;47.414;18.954;2023-12-29T12:28:05;42.88;;;26.33;;
64684;SDS011;51109;47.414;18.954;2023-12-29T12:30:32;33.42;;;22.48;;
64684;SDS011;51109;47.414;18.954;2023-12-29T12:33:02;32.35;;;21.25;;
64684;SDS011;51109;47.414;18.954;2023-12-29T12:35:29;30.38;;;22.95;;
64684;SDS011;51109;47.414;18.954;2023-12-29T12:38:14;27.88;;;19.65;;
64684;SDS011;51109;47.414;18.954;2023-12-29T12:40:47;25.55;;;17.20;;
64684;SDS011;51109;47.414;18.954;2023-12-29T12:43:14;25.88;;;16.13;;
64684;SDS011;51109;47.414;18.954;2023-12-29T12:46:04;25.92;;;17.55;;
64684;SDS011;51109;47.414;18.954;2023-12-29T12:48:32;24.92;;;17.50;;
64684;SDS011;51109;47.414;18.954;2023-12-29T12:51:09;26.15;;;17.50;;
64684;SDS011;51109;47.414;18.954;2023-12-29T12:53:39;26.65;;;16.77;;
64684;SDS011;51109;47.414;18.954;2023-12-29T12:56:05;26.25;;;17.23;;
64684;SDS011;51109;47.414;18.954;2023-12-29T12:58:32;25.45;;;16.65;;
64684;SDS011;51109;47.414;18.954;2023-12-29T13:00:59;28.30;;;18.35;;
64684;SDS011;51109;47.414;18.954;2023-12-29T13:03:26;25.17;;;15.77;;
64684;SDS011;51109;47.414;18.954;2023-12-29T13:05:52;24.42;;;17.00;;
64684;SDS011;51109;47.414;18.954;2023-12-29T13:08:19;24.90;;;17.48;;
64684;SDS011;51109;47.414;18.954;2023-12-29T13:10:45;25.92;;;15.93;;
64684;SDS011;51109;47.414;18.954;2023-12-29T13:13:11;26.75;;;18.55;;
64684;SDS011;51109;47.414;18.954;2023-12-29T13:15:55;27.98;;;18.77;;
64684;SDS011;51109;47.414;18.954;2023-12-29T13:18:30;28.58;;;19.05;;
64684;SDS011;51109;47.414;18.954;2023-12-29T13:21:00;29.08;;;19.25;;
64684;SDS011;51109;47.414;18.954;2023-12-29T13:23:27;33.40;;;20.58;;
64684;SDS011;51109;47.414;18.954;2023-12-29T13:25:54;32.60;;;19.08;;
64684;SDS011;51109;47.414;18.954;2023-12-29T13:28:22;27.50;;;19.40;;
64684;SDS011;51109;47.414;18.954;2023-12-29T13:30:49;31.63;;;20.17;;
64684;SDS011;51109;47.414;18.954;2023-12-29T13:33:17;28.08;;;19.45;;
64684;SDS011;51109;47.414;18.954;2023-12-29T13:35:53;34.85;;;22.90;;
64684;SDS011;51109;47.414;18.954;2023-12-29T13:38:28;31.90;;;21.23;;
64684;SDS011;51109;47.414;18.954;2023-12-29T13:41:09;33.30;;;22.08;;
64684;SDS011;51109;47.414;18.954;2023-12-29T13:43:38;32.20;;;21.33;;
64684;SDS011;51109;47.414;18.954;2023-12-29T13:46:08;32.95;;;22.75;;
64684;SDS011;51109;47.414;18.954;2023-12-29T13:48:35;35.72;;;22.55;;
64684;SDS011;51109;47.414;18.954;2023-12-29T13:51:02;38.13;;;22.48;;
64684;SDS011;51109;47.414;18.954;2023-12-29T13:53:28;32.88;;;23.63;;
64684;SDS011;51109;47.414;18.954;2023-12-29T13:56:05;39.08;;;23.98;;
64684;SDS011;51109;47.414;18.954;2023-12-29T13:58:32;36.33;;;23.20;;
64684;SDS011;51109;47.414;18.954;2023-12-29T14:00:58;37.13;;;24.48;;
64684;SDS011;51109;47.414;18.954;2023-12-29T14:03:31;37.33;;;25.50;;
64684;SDS011;51109;47.414;18.954;2023-12-29T14:06:11;37.97;;;24.15;;
64684;SDS011;51109;47.414;18.954;2023-12-29T14:08:47;34.92;;;24.77;;
64684;SDS011;51109;47.414;18.954;2023-12-29T14:11:13;36.83;;;25.67;;
64684;SDS011;51109;47.414;18.954;2023-12-29T14:13:42;40.50;;;26.05;;
64684;SDS011;51109;47.414;18.954;2023-12-29T14:16:09;37.53;;;25.17;;
64684;SDS011;51109;47.414;18.954;2023-12-29T14:21:19;36.72;;;26.33;;
64684;SDS011;51109;47.414;18.954;2023-12-29T14:23:56;40.58;;;25.92;;
64684;SDS011;51109;47.414;18.954;2023-12-29T14:26:26;33.70;;;24.38;;
64684;SDS011;51109;47.414;18.954;2023-12-29T14:29:02;40.83;;;26.67;;
64684;SDS011;51109;47.414;18.954;2023-12-29T14:31:30;40.70;;;26.58;;
64684;SDS011;51109;47.414;18.954;2023-12-29T14:34:01;37.03;;;26.35;;
64684;SDS011;51109;47.414;18.954;2023-12-29T14:36:28;57.05;;;32.97;;
64684;SDS011;51109;47.414;18.954;2023-12-29T14:38:54;47.42;;;29.92;;
64684;SDS011;51109;47.414;18.954;2023-12-29T14:41:20;49.33;;;28.75;;
64684;SDS011;51109;47.414;18.954;2023-12-29T14:43:46;49.97;;;32.15;;